Satellite Actuals Today Synoptics Week ahead

Actual weather at the Black Mountains Gliding Club.

METARs

Birmingham

2020/02/24 10:20
EGBB 241020Z 21009KT 170V250 5000 RA BKN009 BKN021 10/09 Q1003

Brize Norton

2020/02/24 10:20
EGVN 241020Z 23009KT 4000 -RADZ FEW005 SCT007 BKN014 10/10 Q1006 NOSIG RMK GRN GRN

Cardiff

2020/02/24 10:20
EGFF 241020Z AUTO 25021KT 4100 RA OVC012/// //////CB 10/09 Q1007 RERA

Select station

2020/02/24 10:20
EGCC 241020Z 20010KT 9999 FEW010 BKN019 10/09 Q1000

Decode?  - Copy the METAR (from the station code) and paste it into the METARs/TAFs box here.

Webcams
Current Long Mynd West

Airfield webcams


Bidford
Cambridge
Dunstable
Lasham
Long Mynd
Usk Airfield (South Wales GC)
Nympsfield airfield
Aston Down
Staverton- looking NE.
Shenington Airfield, near Banbury - from the clubhouse, looking north
Lasham airfield Hampshire

General webcams

Abergavenny looking west towards the Blorenge
Abersoch - Llyn peninsula - 2
Alvechurch, North Worcs.
Brecon Beacons National Park Visitor Centre webcam
Llangorse webcam
Newbury
Wye Valley webcam - different views can be selected